Main page
METAR-TAF:

METAR-TAF

Airports :

Valencia, Spain

latitude: 39-37-26N, longitude: 0-28-26W, elevation: 127 m

Current weather observation

The report was made 28 minutes ago, at 23:00 UTC
Calm wind
Temperature 16°C
Humidity 82%
Pressure 1019 hPa
Visibility 10 km or more

METAR: LEBT 222300Z AUTO 00000KT 9999 // FEW014/// 16/13 Q1019

Time: 01:28 (23:28 UTC)


TAF: missing

Weather observations and forecasts of more than 4000 airports (METAR and TAF reports).

The available stations are represented by yellow and red dots on the map.

Hover mouse over dot to see the name of the station.

Then click to see weather observations and forecasts.

To change the map : click on the green buttons with a black cross to zoom in, on the green button with a dash to zoom out, or on the green arrows for adjacent maps.


METAR-TAF: